createdAt,value
2022-09-25T00:01:15.016Z,15.70
2022-09-25T00:03:47.556Z,16.40
2022-09-25T00:06:16.484Z,15.00
2022-09-25T00:08:44.316Z,15.20
2022-09-25T00:11:18.498Z,15.30
2022-09-25T00:13:46.852Z,14.50
2022-09-25T00:16:17.212Z,13.90
2022-09-25T00:19:03.453Z,13.30
2022-09-25T00:21:32.295Z,13.70
2022-09-25T00:24:04.900Z,12.60
2022-09-25T00:26:35.480Z,13.80
2022-09-25T00:29:04.641Z,13.10
2022-09-25T00:31:32.490Z,12.30
2022-09-25T00:34:02.290Z,12.60
2022-09-25T00:36:29.762Z,13.60
2022-09-25T00:38:57.831Z,12.50
2022-09-25T00:41:27.035Z,13.00
2022-09-25T00:43:56.949Z,12.20
2022-09-25T00:46:44.081Z,12.20
2022-09-25T00:49:19.705Z,12.50
2022-09-25T00:51:55.145Z,12.10
2022-09-25T00:54:24.999Z,13.50
2022-09-25T00:56:54.795Z,11.90
2022-09-25T00:59:28.384Z,13.00
2022-09-25T01:01:56.346Z,12.60
2022-09-25T01:04:24.015Z,12.10
2022-09-25T01:06:50.851Z,11.80
2022-09-25T01:09:18.729Z,12.70
2022-09-25T01:11:45.897Z,11.80
2022-09-25T01:14:17.019Z,11.50
2022-09-25T01:17:19.077Z,12.90
2022-09-25T01:19:58.102Z,12.90
2022-09-25T01:22:33.749Z,12.80
2022-09-25T01:25:36.738Z,12.80
2022-09-25T01:28:11.186Z,13.50
2022-09-25T01:30:44.206Z,14.00
2022-09-25T01:33:18.359Z,13.30
2022-09-25T01:36:00.727Z,13.30
2022-09-25T01:38:45.323Z,12.90
2022-09-25T01:41:23.942Z,14.70
2022-09-25T01:44:05.997Z,14.40
2022-09-25T01:46:39.374Z,13.50
2022-09-25T01:49:17.234Z,14.20
2022-09-25T01:51:52.471Z,14.40
2022-09-25T01:54:29.457Z,15.10
2022-09-25T01:57:09.037Z,14.10
2022-09-25T01:59:43.726Z,14.40
2022-09-25T02:02:18.764Z,13.90
2022-09-25T02:04:56.688Z,14.80
2022-09-25T02:07:31.398Z,14.50
2022-09-25T02:10:07.769Z,14.20
2022-09-25T02:12:40.398Z,13.90
2022-09-25T02:15:25.436Z,13.80
2022-09-25T02:18:44.355Z,13.40
2022-09-25T02:21:14.081Z,14.70
2022-09-25T02:24:01.185Z,15.30
2022-09-25T02:26:30.366Z,15.20
2022-09-25T02:28:58.779Z,14.20
2022-09-25T02:31:53.350Z,14.80
2022-09-25T02:34:21.878Z,14.00
2022-09-25T02:36:49.731Z,15.40
2022-09-25T02:39:34.107Z,15.60
2022-09-25T02:42:09.738Z,14.90
2022-09-25T02:44:46.369Z,16.50
2022-09-25T02:47:20.791Z,16.50
2022-09-25T02:49:56.855Z,16.50
2022-09-25T02:52:42.430Z,16.20
2022-09-25T02:55:19.717Z,17.10
2022-09-25T02:57:55.469Z,16.30
2022-09-25T03:00:23.334Z,17.60
2022-09-25T03:02:59.078Z,17.00
2022-09-25T03:05:27.069Z,16.50
2022-09-25T03:08:13.089Z,17.30
2022-09-25T03:10:41.568Z,18.40
2022-09-25T03:13:15.409Z,17.60
2022-09-25T03:15:45.894Z,17.00
2022-09-25T03:18:14.341Z,17.80
2022-09-25T03:20:41.386Z,17.70
2022-09-25T03:23:08.128Z,18.80
2022-09-25T03:25:34.869Z,18.90
2022-09-25T03:28:02.667Z,17.30
2022-09-25T03:30:29.651Z,19.10
2022-09-25T03:32:56.518Z,17.50
2022-09-25T03:35:23.259Z,18.40
2022-09-25T03:37:50.266Z,18.20
2022-09-25T03:40:17.026Z,18.30
2022-09-25T03:42:43.784Z,18.20
2022-09-25T03:45:11.137Z,17.70
2022-09-25T03:47:38.083Z,18.70
2022-09-25T03:50:07.998Z,18.10
2022-09-25T03:52:34.899Z,17.40
2022-09-25T03:55:01.995Z,17.70
2022-09-25T03:57:29.547Z,18.90
2022-09-25T04:00:00.715Z,17.70
2022-09-25T04:02:28.698Z,20.90
2022-09-25T04:04:56.119Z,19.70
2022-09-25T04:07:24.701Z,18.80
2022-09-25T04:09:51.334Z,18.00
2022-09-25T04:12:18.077Z,18.10
2022-09-25T04:14:45.536Z,19.50
2022-09-25T04:17:12.580Z,20.20
2022-09-25T04:19:39.323Z,17.80
2022-09-25T04:22:06.059Z,19.80
2022-09-25T04:24:48.772Z,19.20
2022-09-25T04:27:21.736Z,19.50
2022-09-25T04:29:49.115Z,19.60
2022-09-25T04:32:35.629Z,18.70
2022-09-25T04:35:03.075Z,19.60
2022-09-25T04:37:30.150Z,19.00
2022-09-25T04:39:57.925Z,18.80
2022-09-25T04:42:25.545Z,19.50
2022-09-25T04:44:53.818Z,19.40
2022-09-25T04:47:22.111Z,19.80
2022-09-25T04:49:49.449Z,18.60
2022-09-25T04:52:18.215Z,19.60
2022-09-25T04:54:46.320Z,19.90
2022-09-25T04:57:38.794Z,20.00
2022-09-25T05:00:06.427Z,20.10
2022-09-25T05:02:34.197Z,19.70
2022-09-25T05:05:01.162Z,19.70
2022-09-25T05:07:28.175Z,20.10
2022-09-25T05:09:54.915Z,20.70
2022-09-25T05:12:21.648Z,19.30
2022-09-25T05:14:48.401Z,19.70
2022-09-25T05:17:15.034Z,20.10
2022-09-25T05:19:41.694Z,20.20
2022-09-25T05:22:08.402Z,20.60
2022-09-25T05:24:35.138Z,20.00
2022-09-25T05:27:02.182Z,20.40
2022-09-25T05:29:29.035Z,20.00
2022-09-25T05:31:55.978Z,20.90
2022-09-25T05:34:22.933Z,18.90
2022-09-25T05:36:50.077Z,18.90
2022-09-25T05:39:16.912Z,19.70
2022-09-25T05:41:43.660Z,18.90
2022-09-25T05:44:10.875Z,20.20
2022-09-25T05:46:39.953Z,19.10
2022-09-25T05:49:06.939Z,20.40
2022-09-25T05:51:34.090Z,19.40
2022-09-25T05:54:00.949Z,19.40
2022-09-25T05:56:27.877Z,19.30
2022-09-25T05:58:58.100Z,18.60
2022-09-25T06:01:25.808Z,18.30
2022-09-25T06:03:52.605Z,18.00
2022-09-25T06:06:22.526Z,17.00
2022-09-25T06:08:54.379Z,17.50
2022-09-25T06:11:21.867Z,17.20
2022-09-25T06:13:54.167Z,16.10
2022-09-25T06:16:23.153Z,16.20
2022-09-25T06:18:50.549Z,16.40
2022-09-25T06:21:17.319Z,16.70
2022-09-25T06:23:48.348Z,17.80
2022-09-25T06:26:14.998Z,17.40
2022-09-25T06:28:41.635Z,16.60
2022-09-25T06:31:08.500Z,16.30
2022-09-25T06:33:35.374Z,16.60
2022-09-25T06:36:04.934Z,17.00
2022-09-25T06:38:34.658Z,16.80
2022-09-25T06:41:04.702Z,17.30
2022-09-25T06:43:31.715Z,16.30
2022-09-25T06:46:01.948Z,16.10
2022-09-25T06:48:30.320Z,16.80
2022-09-25T06:51:00.457Z,17.00
2022-09-25T06:53:27.981Z,15.80
2022-09-25T06:55:58.763Z,16.10
2022-09-25T06:58:27.058Z,15.10
2022-09-25T07:00:56.224Z,15.60
2022-09-25T07:03:42.872Z,15.30
2022-09-25T07:06:13.064Z,15.10
2022-09-25T07:08:41.748Z,16.30
2022-09-25T07:11:14.473Z,16.20
2022-09-25T07:13:42.406Z,15.80
2022-09-25T07:16:18.121Z,16.50
2022-09-25T07:18:46.769Z,16.10
2022-09-25T07:21:16.690Z,15.40
2022-09-25T07:23:47.255Z,15.80
2022-09-25T07:26:26.904Z,15.10
2022-09-25T07:28:55.224Z,16.10
2022-09-25T07:31:25.735Z,16.30
2022-09-25T07:33:53.585Z,15.70
2022-09-25T07:36:20.803Z,15.60
2022-09-25T07:38:51.946Z,15.60
2022-09-25T07:41:23.196Z,15.50
2022-09-25T07:44:27.455Z,15.60
2022-09-25T07:46:43.965Z,15.30
2022-09-25T07:49:11.351Z,16.00
2022-09-25T07:51:38.355Z,15.10
2022-09-25T07:54:05.208Z,14.20
2022-09-25T07:56:34.095Z,15.30
2022-09-25T07:59:01.130Z,14.50
2022-09-25T08:01:28.003Z,14.20
2022-09-25T08:03:54.885Z,13.30
2022-09-25T08:06:21.782Z,13.80
2022-09-25T08:08:48.369Z,13.70
2022-09-25T08:11:18.026Z,12.90
2022-09-25T08:13:45.618Z,12.50
2022-09-25T08:16:15.486Z,12.70
2022-09-25T08:18:45.976Z,12.00
2022-09-25T08:21:15.168Z,11.80
2022-09-25T08:23:47.812Z,11.80
2022-09-25T08:26:16.262Z,12.10
2022-09-25T08:28:43.874Z,11.70
2022-09-25T08:31:11.541Z,11.30
2022-09-25T08:33:40.125Z,10.60
2022-09-25T08:36:06.930Z,12.60
2022-09-25T08:38:34.227Z,12.10
2022-09-25T08:41:07.130Z,13.50
2022-09-25T08:43:40.574Z,13.40
2022-09-25T08:46:39.703Z,13.40
2022-09-25T08:49:10.945Z,13.90
2022-09-25T08:51:49.811Z,14.20
2022-09-25T08:54:23.834Z,13.50
2022-09-25T08:56:56.740Z,13.40
2022-09-25T08:59:27.052Z,13.10
2022-09-25T09:02:02.055Z,13.70
2022-09-25T09:04:32.871Z,13.10
2022-09-25T09:07:31.005Z,14.10
2022-09-25T09:10:14.696Z,13.40
2022-09-25T09:12:46.555Z,12.40
2022-09-25T09:15:36.061Z,13.60
2022-09-25T09:18:24.355Z,11.50
2022-09-25T09:21:08.873Z,11.40
2022-09-25T09:23:53.470Z,10.50
2022-09-25T09:26:33.655Z,9.70
2022-09-25T09:29:12.590Z,10.00
2022-09-25T09:31:39.235Z,8.30
2022-09-25T09:34:32.057Z,8.00
2022-09-25T09:37:23.242Z,7.90
2022-09-25T09:40:19.075Z,7.70
2022-09-25T09:42:55.351Z,8.40
2022-09-25T09:45:35.152Z,7.40
2022-09-25T09:48:32.042Z,7.70
2022-09-25T09:51:27.005Z,7.10
2022-09-25T09:54:16.736Z,7.30
2022-09-25T09:56:49.342Z,7.00
2022-09-25T09:59:25.551Z,7.10
2022-09-25T10:02:05.211Z,6.90
2022-09-25T10:04:40.268Z,6.20
2022-09-25T10:07:16.410Z,6.30
2022-09-25T10:09:43.546Z,5.90
2022-09-25T10:12:21.721Z,5.80
2022-09-25T10:14:48.541Z,6.20
2022-09-25T10:17:16.827Z,5.90
2022-09-25T10:19:57.754Z,5.40
2022-09-25T10:22:28.655Z,5.90
2022-09-25T10:25:04.885Z,5.20
2022-09-25T10:27:41.158Z,5.40
2022-09-25T10:30:10.954Z,4.70
2022-09-25T10:33:15.659Z,4.50
2022-09-25T10:35:48.586Z,4.40
2022-09-25T10:38:47.250Z,4.60
2022-09-25T10:41:20.047Z,4.60
2022-09-25T10:43:55.678Z,3.80
2022-09-25T10:46:59.605Z,4.20
2022-09-25T10:49:46.945Z,4.40
2022-09-25T10:52:19.338Z,4.80
2022-09-25T10:54:48.998Z,4.90
2022-09-25T10:57:37.807Z,3.50
2022-09-25T11:00:19.387Z,3.80
2022-09-25T11:02:56.815Z,4.90
2022-09-25T11:05:33.236Z,5.10
2022-09-25T11:08:04.097Z,4.50
2022-09-25T11:10:35.785Z,4.40
2022-09-25T11:13:17.498Z,4.40
2022-09-25T11:15:53.226Z,4.30
2022-09-25T11:18:40.344Z,4.70
2022-09-25T11:21:36.411Z,4.40
2022-09-25T11:24:16.726Z,4.20
2022-09-25T11:26:51.245Z,4.30
2022-09-25T11:29:37.797Z,4.40
2022-09-25T11:32:27.428Z,4.80
2022-09-25T11:35:14.624Z,4.00
2022-09-25T11:38:02.814Z,3.80
2022-09-25T11:41:03.019Z,4.40
2022-09-25T11:43:58.407Z,4.60
2022-09-25T11:47:01.010Z,4.20
2022-09-25T11:49:39.564Z,4.50
2022-09-25T11:52:24.453Z,4.70
2022-09-25T11:55:43.268Z,5.00
2022-09-25T11:58:26.128Z,4.80
2022-09-25T12:01:28.606Z,5.60
2022-09-25T12:04:13.237Z,5.90
2022-09-25T12:06:59.906Z,5.50
2022-09-25T12:09:45.007Z,5.20
2022-09-25T12:12:25.919Z,5.20
2022-09-25T12:15:14.544Z,5.30
2022-09-25T12:18:12.892Z,5.60
2022-09-25T12:20:51.155Z,5.50
2022-09-25T12:23:30.568Z,5.00
2022-09-25T12:26:12.350Z,5.40
2022-09-25T12:29:04.163Z,5.50
2022-09-25T12:31:52.226Z,5.70
2022-09-25T12:34:57.772Z,5.80
2022-09-25T12:37:50.118Z,5.40
2022-09-25T12:40:19.608Z,5.70
2022-09-25T12:42:55.328Z,5.80
2022-09-25T12:45:31.134Z,5.20
2022-09-25T12:48:20.922Z,5.30
2022-09-25T12:51:05.346Z,4.60
2022-09-25T12:53:55.785Z,5.00
2022-09-25T12:56:37.825Z,4.20
2022-09-25T12:59:24.150Z,4.60
2022-09-25T13:01:54.071Z,3.70
2022-09-25T13:04:34.720Z,3.90
2022-09-25T13:07:20.905Z,4.50
2022-09-25T13:09:48.618Z,4.60
2022-09-25T13:12:32.105Z,4.70
2022-09-25T13:15:10.987Z,4.40
2022-09-25T13:17:39.395Z,4.30
2022-09-25T13:20:28.274Z,4.10
2022-09-25T13:23:00.529Z,4.50
2022-09-25T13:25:28.855Z,4.50
2022-09-25T13:28:05.060Z,4.20
2022-09-25T13:30:32.000Z,4.10
2022-09-25T13:33:02.621Z,4.50
2022-09-25T13:35:32.500Z,4.50
2022-09-25T13:38:37.331Z,4.80
2022-09-25T13:41:30.737Z,5.00
2022-09-25T13:44:36.944Z,5.50
2022-09-25T13:47:25.097Z,5.00
2022-09-25T13:50:04.362Z,4.40
2022-09-25T13:53:17.582Z,4.80
2022-09-25T13:55:56.910Z,4.90
2022-09-25T13:58:28.826Z,5.40
2022-09-25T14:01:01.226Z,5.10
2022-09-25T14:03:31.688Z,5.10
2022-09-25T14:06:00.431Z,5.80
2022-09-25T14:08:31.875Z,4.80
2022-09-25T14:11:04.332Z,5.00
2022-09-25T14:13:33.179Z,5.30
2022-09-25T14:16:02.431Z,4.80
2022-09-25T14:18:42.499Z,5.00
2022-09-25T14:21:12.868Z,5.30
2022-09-25T14:23:52.871Z,5.40
2022-09-25T14:26:24.310Z,4.70
2022-09-25T14:28:53.229Z,5.10
2022-09-25T14:31:23.047Z,5.70
2022-09-25T14:34:04.646Z,4.90
2022-09-25T14:36:50.151Z,4.70
2022-09-25T14:39:44.377Z,5.10
2022-09-25T14:42:52.174Z,4.90
2022-09-25T14:45:50.917Z,5.70
2022-09-25T14:48:24.375Z,5.00
2022-09-25T14:51:00.898Z,4.60
2022-09-25T14:53:35.730Z,4.80
2022-09-25T14:56:09.252Z,5.00
2022-09-25T14:58:41.188Z,5.20
2022-09-25T15:01:29.999Z,5.20
2022-09-25T15:04:06.447Z,5.40
2022-09-25T15:06:38.875Z,5.40
2022-09-25T15:09:49.408Z,4.90
2022-09-25T15:12:34.105Z,4.70
2022-09-25T15:15:11.461Z,4.90
2022-09-25T15:18:01.936Z,5.00
2022-09-25T15:20:32.325Z,4.80
2022-09-25T15:23:05.309Z,4.80
2022-09-25T15:25:39.789Z,5.20
2022-09-25T15:28:26.258Z,4.80
2022-09-25T15:31:00.045Z,5.00
2022-09-25T15:33:30.056Z,5.50
2022-09-25T15:36:00.461Z,5.50
2022-09-25T15:38:32.732Z,5.50
2022-09-25T15:40:59.875Z,5.40
2022-09-25T15:43:29.633Z,5.80
2022-09-25T15:46:08.474Z,5.60
2022-09-25T15:48:41.138Z,5.80
2022-09-25T15:51:19.840Z,5.60
2022-09-25T15:53:56.452Z,5.40
2022-09-25T15:56:50.702Z,5.90
2022-09-25T15:59:23.198Z,5.90
2022-09-25T16:02:09.771Z,6.00
2022-09-25T16:04:40.060Z,6.40
2022-09-25T16:07:47.657Z,6.90
2022-09-25T16:10:18.003Z,7.10
2022-09-25T16:12:48.942Z,7.20
2022-09-25T16:15:29.863Z,7.30
2022-09-25T16:18:06.102Z,7.20
2022-09-25T16:20:38.788Z,7.80
2022-09-25T16:23:29.600Z,7.80
2022-09-25T16:25:59.654Z,7.80
2022-09-25T16:28:29.895Z,7.90
2022-09-25T16:31:08.569Z,7.50
2022-09-25T16:33:42.065Z,8.00
2022-09-25T16:36:19.233Z,7.90
2022-09-25T16:39:07.979Z,7.50
2022-09-25T16:41:38.324Z,7.60
2022-09-25T16:44:20.910Z,7.00
2022-09-25T16:46:59.789Z,7.60
2022-09-25T16:49:26.497Z,7.30
2022-09-25T16:51:54.917Z,7.30
2022-09-25T16:54:30.385Z,8.00
2022-09-25T16:56:58.946Z,7.80
2022-09-25T16:59:27.857Z,7.10
2022-09-25T17:02:01.518Z,7.80
2022-09-25T17:04:30.651Z,8.10
2022-09-25T17:06:58.176Z,8.00
2022-09-25T17:09:28.342Z,8.20
2022-09-25T17:12:10.868Z,8.30
2022-09-25T17:14:37.671Z,8.00
2022-09-25T17:17:04.385Z,8.20
2022-09-25T17:19:31.114Z,9.00
2022-09-25T17:21:57.977Z,9.60
2022-09-25T17:24:29.935Z,9.90
2022-09-25T17:27:13.315Z,9.70
2022-09-25T17:29:42.196Z,10.80
2022-09-25T17:32:14.950Z,10.80
2022-09-25T17:34:44.898Z,11.90
2022-09-25T17:37:11.578Z,12.60
2022-09-25T17:39:38.499Z,12.70
2022-09-25T17:42:05.377Z,11.20
2022-09-25T17:44:32.767Z,11.70
2022-09-25T17:47:00.516Z,11.60
2022-09-25T17:49:29.237Z,11.70
2022-09-25T17:51:56.115Z,11.40
2022-09-25T17:54:23.578Z,12.10
2022-09-25T17:56:50.722Z,12.30
2022-09-25T17:59:17.755Z,11.60
2022-09-25T18:01:44.689Z,11.90
2022-09-25T18:04:25.179Z,12.60
2022-09-25T18:06:52.344Z,12.30
2022-09-25T18:09:21.770Z,13.00
2022-09-25T18:11:48.768Z,13.20
2022-09-25T18:14:16.665Z,13.50
2022-09-25T18:16:45.082Z,12.50
2022-09-25T18:19:38.447Z,13.00
2022-09-25T18:22:18.847Z,13.40
2022-09-25T18:24:55.898Z,13.30
2022-09-25T18:27:33.841Z,14.20
2022-09-25T18:30:01.120Z,13.70
2022-09-25T18:32:29.109Z,15.10
2022-09-25T18:34:55.795Z,14.20
2022-09-25T18:37:22.574Z,13.30
2022-09-25T18:39:50.331Z,13.90
2022-09-25T18:42:17.431Z,14.10
2022-09-25T18:44:44.255Z,13.00
2022-09-25T18:47:11.354Z,13.50
2022-09-25T18:49:38.515Z,13.00
2022-09-25T18:52:06.291Z,13.20
2022-09-25T18:54:34.016Z,12.80
2022-09-25T18:57:00.734Z,12.40
2022-09-25T18:59:30.368Z,12.40
2022-09-25T19:01:57.178Z,12.40
2022-09-25T19:04:25.199Z,11.90
2022-09-25T19:06:55.491Z,11.40
2022-09-25T19:09:24.130Z,12.60
2022-09-25T19:11:51.336Z,12.70
2022-09-25T19:14:19.450Z,12.10
2022-09-25T19:16:47.097Z,12.40
2022-09-25T19:19:14.091Z,13.10
2022-09-25T19:21:44.309Z,13.10
2022-09-25T19:24:11.370Z,14.40
2022-09-25T19:26:38.270Z,13.60
2022-09-25T19:29:07.901Z,13.00
2022-09-25T19:31:34.902Z,12.80
2022-09-25T19:34:04.664Z,13.00
2022-09-25T19:36:34.352Z,12.70
2022-09-25T19:39:01.863Z,11.90
2022-09-25T19:41:31.323Z,13.10
2022-09-25T19:44:11.223Z,12.60
2022-09-25T19:46:41.067Z,13.60
2022-09-25T19:49:08.052Z,13.30
2022-09-25T19:51:37.166Z,15.40
2022-09-25T19:54:05.275Z,16.60
2022-09-25T19:56:31.999Z,16.10
2022-09-25T19:58:58.996Z,15.60
2022-09-25T20:01:29.748Z,16.20
2022-09-25T20:03:56.658Z,15.30
2022-09-25T20:06:25.735Z,16.20
2022-09-25T20:09:03.135Z,15.80
2022-09-25T20:11:31.281Z,16.00
2022-09-25T20:14:00.662Z,14.70
2022-09-25T20:16:28.945Z,15.80
2022-09-25T20:18:59.832Z,16.70
2022-09-25T20:21:29.891Z,19.30
2022-09-25T20:23:58.987Z,19.40
2022-09-25T20:26:26.925Z,18.60
2022-09-25T20:28:59.501Z,20.60
2022-09-25T20:31:28.749Z,22.30
2022-09-25T20:33:56.115Z,22.10
2022-09-25T20:36:23.620Z,23.80
2022-09-25T20:38:52.302Z,23.40
2022-09-25T20:41:20.459Z,25.20
2022-09-25T20:43:52.889Z,25.20
2022-09-25T20:46:20.880Z,26.90
2022-09-25T20:48:50.588Z,27.70
2022-09-25T20:51:27.015Z,27.10
2022-09-25T20:54:00.733Z,27.40
2022-09-25T20:56:29.439Z,26.40
2022-09-25T20:58:57.416Z,27.50
2022-09-25T21:01:27.424Z,28.80
2022-09-25T21:03:54.739Z,28.70
2022-09-25T21:06:24.495Z,30.00
2022-09-25T21:08:57.356Z,30.70
2022-09-25T21:11:26.117Z,30.30
2022-09-25T21:13:57.695Z,30.90
2022-09-25T21:16:29.779Z,30.60
2022-09-25T21:19:00.112Z,30.80
2022-09-25T21:21:28.441Z,39.60
2022-09-25T21:23:57.757Z,38.50
2022-09-25T21:26:27.458Z,33.10
2022-09-25T21:28:56.939Z,31.40
2022-09-25T21:31:39.509Z,31.60
2022-09-25T21:34:12.125Z,30.60
2022-09-25T21:36:38.931Z,29.50
2022-09-25T21:39:06.875Z,29.30
2022-09-25T21:41:34.457Z,29.10
2022-09-25T21:44:05.619Z,29.30
2022-09-25T21:46:34.858Z,28.90
2022-09-25T21:49:04.755Z,29.40
2022-09-25T21:51:42.799Z,29.40
2022-09-25T21:54:11.710Z,29.40
2022-09-25T21:56:38.708Z,29.00
2022-09-25T21:59:08.862Z,30.40
2022-09-25T22:01:39.285Z,29.20
2022-09-25T22:04:08.114Z,28.70
2022-09-25T22:06:40.788Z,30.70
2022-09-25T22:09:21.999Z,30.20
2022-09-25T22:11:50.558Z,29.80
2022-09-25T22:14:19.372Z,31.60
2022-09-25T22:16:48.958Z,28.90
2022-09-25T22:19:25.980Z,29.20
2022-09-25T22:22:02.655Z,29.70
2022-09-25T22:24:29.356Z,29.60
2022-09-25T22:26:56.540Z,28.70
2022-09-25T22:29:24.298Z,31.00
2022-09-25T22:31:52.416Z,31.70
2022-09-25T22:34:22.252Z,31.00
2022-09-25T22:36:56.197Z,31.10
2022-09-25T22:39:27.113Z,31.80
2022-09-25T22:41:54.968Z,32.90
2022-09-25T22:44:22.387Z,32.50
2022-09-25T22:46:49.306Z,32.90
2022-09-25T22:49:16.812Z,31.90
2022-09-25T22:51:43.856Z,33.50
2022-09-25T22:54:14.034Z,32.50
2022-09-25T22:56:41.744Z,32.00
2022-09-25T22:59:14.309Z,33.70
2022-09-25T23:01:46.160Z,32.20
2022-09-25T23:04:16.481Z,31.80
2022-09-25T23:06:43.535Z,31.90
2022-09-25T23:09:15.121Z,31.20
2022-09-25T23:11:42.584Z,31.60
2022-09-25T23:14:18.979Z,32.30
2022-09-25T23:16:48.764Z,32.20
2022-09-25T23:19:20.026Z,33.10
2022-09-25T23:21:47.797Z,32.30
2022-09-25T23:24:16.804Z,32.00
2022-09-25T23:26:45.299Z,32.60
2022-09-25T23:29:14.606Z,32.30
2022-09-25T23:31:42.395Z,32.70
2022-09-25T23:34:10.260Z,32.80
2022-09-25T23:36:38.006Z,32.40
2022-09-25T23:39:07.869Z,32.20
2022-09-25T23:41:37.375Z,32.10
2022-09-25T23:44:07.093Z,32.10
2022-09-25T23:46:37.512Z,32.50
2022-09-25T23:49:05.442Z,32.50
2022-09-25T23:51:32.349Z,33.00
2022-09-25T23:54:01.134Z,32.90
2022-09-25T23:56:31.173Z,32.70
2022-09-25T23:59:01.039Z,32.60
